Time;durP1;ratioP1;P1;durP2;ratioP2;P2;SDS_P1;SDS_P2;PMS_P1;PMS_P2;Temp;Humidity;BMP_temperature;BMP_pressure;BME280_temperature;BME280_humidity;BME280_pressure;Samples;Min_cycle;Max_cycle;Signal;HPM_P1;HPM_P2
2022/06/05 00:01:24;;;;;;;7.93;5.30;;;;;;;;;;5011300;28;93046;-72
2022/06/05 00:03:54;;;;;;;10.20;5.75;;;;;;;;;;5012802;28;94072;-72
2022/06/05 00:06:20;;;;;;;11.15;4.97;;;;;;;;;;5012967;28;94139;-73
2022/06/05 00:09:07;;;;;;;11.18;5.63;;;;;;;;;;5011872;28;92563;-72
2022/06/05 00:11:37;;;;;;;6.25;5.20;;;;;;;;;;4999139;28;92959;-72
2022/06/05 00:14:04;;;;;;;8.50;6.13;;;;;;;;;;5012327;28;94182;-72
2022/06/05 00:16:30;;;;;;;6.63;5.38;;;;;;;;;;5022165;28;92237;-72
2022/06/05 00:18:57;;;;;;;8.70;6.10;;;;;;;;;;5012651;28;93040;-71
2022/06/05 00:21:23;;;;;;;10.95;5.90;;;;;;;;;;5004119;28;92487;-71
2022/06/05 00:23:51;;;;;;;7.60;6.00;;;;;;;;;;5011178;28;95369;-72
2022/06/05 00:26:44;;;;;;;6.55;5.60;;;;;;;;;;5006439;28;94177;-71
2022/06/05 00:29:29;;;;;;;12.20;6.15;;;;;;;;;;5009606;28;92845;-71
2022/06/05 00:32:07;;;;;;;11.15;5.95;;;;;;;;;;5018711;28;93938;-72
2022/06/05 00:34:34;;;;;;;14.13;5.85;;;;;;;;;;5012510;28;94156;-71
2022/06/05 00:37:00;;;;;;;6.25;5.65;;;;;;;;;;5011735;28;92918;-71
2022/06/05 00:39:31;;;;;;;7.72;5.75;;;;;;;;;;5015180;28;93676;-71
2022/06/05 00:41:58;;;;;;;6.55;5.70;;;;;;;;;;5013151;28;91694;-71
2022/06/05 00:44:28;;;;;;;8.45;5.47;;;;;;;;;;5011468;28;92902;-71
2022/06/05 00:46:54;;;;;;;8.20;5.07;;;;;;;;;;5012773;28;94355;-71
2022/06/05 00:49:23;;;;;;;9.55;6.38;;;;;;;;;;5010485;28;94873;-72
2022/06/05 00:51:49;;;;;;;7.20;5.82;;;;;;;;;;5012370;28;96892;-71
2022/06/05 00:54:16;;;;;;;9.85;6.32;;;;;;;;;;5012333;28;93355;-71
2022/06/05 00:56:42;;;;;;;7.82;5.47;;;;;;;;;;5003698;28;92479;-72
2022/06/05 00:59:10;;;;;;;7.32;6.25;;;;;;;;;;5012841;28;93060;-71
2022/06/05 01:01:37;;;;;;;9.40;5.85;;;;;;;;;;5014475;28;93604;-71
2022/06/05 01:04:04;;;;;;;8.20;5.30;;;;;;;;;;5011515;28;93728;-71
2022/06/05 01:06:30;;;;;;;12.73;5.97;;;;;;;;;;5012416;28;92902;-71
2022/06/05 01:08:57;;;;;;;9.02;5.78;;;;;;;;;;5012360;28;92850;-71
2022/06/05 01:11:46;;;;;;;10.05;6.63;;;;;;;;;;5011596;28;93901;-71
2022/06/05 01:14:30;;;;;;;8.93;6.22;;;;;;;;;;5008734;28;95593;-71
2022/06/05 01:17:07;;;;;;;12.95;6.05;;;;;;;;;;5015697;28;92390;-71
2022/06/05 01:19:38;;;;;;;8.68;6.30;;;;;;;;;;5014323;28;92947;-72
2022/06/05 01:22:13;;;;;;;8.40;6.55;;;;;;;;;;5018937;28;93246;-71
2022/06/05 01:24:47;;;;;;;9.88;6.50;;;;;;;;;;5012193;28;93889;-71
2022/06/05 01:27:17;;;;;;;12.05;5.78;;;;;;;;;;5015482;28;94152;-71
2022/06/05 01:29:46;;;;;;;6.45;5.80;;;;;;;;;;5014901;28;92493;-71
2022/06/05 01:32:23;;;;;;;9.70;5.93;;;;;;;;;;5014895;28;92968;-71
2022/06/05 01:34:57;;;;;;;7.28;5.88;;;;;;;;;;5014988;28;94705;-71
2022/06/05 01:37:38;;;;;;;7.32;5.43;;;;;;;;;;5015060;28;92508;-71
2022/06/05 01:40:12;;;;;;;11.75;5.78;;;;;;;;;;5013127;28;94871;-71
2022/06/05 01:42:39;;;;;;;9.73;5.57;;;;;;;;;;5015086;28;94588;-70
2022/06/05 01:45:17;;;;;;;10.82;6.38;;;;;;;;;;5017858;28;92548;-71
2022/06/05 01:47:47;;;;;;;10.38;7.65;;;;;;;;;;5013536;28;94221;-71
2022/06/05 01:50:17;;;;;;;7.25;6.35;;;;;;;;;;5015133;28;92854;-71
2022/06/05 01:52:47;;;;;;;10.02;6.78;;;;;;;;;;5014066;28;93244;-71
2022/06/05 01:55:25;;;;;;;8.10;6.47;;;;;;;;;;5007336;28;94252;-71
2022/06/05 01:57:54;;;;;;;8.32;6.10;;;;;;;;;;5015756;28;91751;-71
2022/06/05 02:00:21;;;;;;;8.30;6.55;;;;;;;;;;5014113;28;93412;-71
2022/06/05 02:02:54;;;;;;;12.98;6.20;;;;;;;;;;5014215;28;94640;-71
2022/06/05 02:05:23;;;;;;;8.32;7.28;;;;;;;;;;5005721;28;94894;-71
2022/06/05 02:07:54;;;;;;;8.65;7.32;;;;;;;;;;5016981;28;96588;-71
2022/06/05 02:10:26;;;;;;;11.25;6.95;;;;;;;;;;5007608;28;92487;-71
2022/06/05 02:12:54;;;;;;;9.88;6.85;;;;;;;;;;5014914;28;93894;-71
2022/06/05 02:15:21;;;;;;;8.13;7.30;;;;;;;;;;5019701;28;94310;-71
2022/06/05 02:17:47;;;;;;;10.57;6.85;;;;;;;;;;5014258;28;93090;-71
2022/06/05 02:20:14;;;;;;;11.77;7.15;;;;;;;;;;5014195;28;94128;-71
2022/06/05 02:22:45;;;;;;;7.72;6.88;;;;;;;;;;5013958;28;93462;-71
2022/06/05 02:25:12;;;;;;;9.82;7.03;;;;;;;;;;5013593;28;92495;-71
2022/06/05 02:27:39;;;;;;;11.85;8.10;;;;;;;;;;5002689;28;93662;-71
2022/06/05 02:30:07;;;;;;;10.15;7.25;;;;;;;;;;5001947;28;96089;-71
2022/06/05 02:32:36;;;;;;;10.98;8.00;;;;;;;;;;5007753;28;95631;-71
2022/06/05 02:35:11;;;;;;;12.00;7.93;;;;;;;;;;5013382;28;93350;-71
2022/06/05 02:37:56;;;;;;;6.93;6.32;;;;;;;;;;5014113;28;92374;-71
2022/06/05 02:40:25;;;;;;;16.02;8.18;;;;;;;;;;5013923;28;93820;-71
2022/06/05 02:42:58;;;;;;;15.55;8.88;;;;;;;;;;5013062;28;93358;-71
2022/06/05 02:45:40;;;;;;;11.02;8.90;;;;;;;;;;5013931;28;92468;-71
2022/06/05 02:48:10;;;;;;;8.57;7.53;;;;;;;;;;5022030;28;94009;-71
2022/06/05 02:50:37;;;;;;;13.32;7.75;;;;;;;;;;5004879;28;94180;-72
2022/06/05 02:53:05;;;;;;;9.80;8.77;;;;;;;;;;5016918;28;92511;-72
2022/06/05 02:55:31;;;;;;;14.60;8.57;;;;;;;;;;5011550;28;95644;-71
2022/06/05 02:57:58;;;;;;;11.65;8.95;;;;;;;;;;5013273;28;92477;-72
2022/06/05 03:00:26;;;;;;;10.45;8.43;;;;;;;;;;5013488;28;93421;-71
2022/06/05 03:05:38;;;;;;;16.75;8.68;;;;;;;;;;5013558;28;92488;-71
2022/06/05 03:08:06;;;;;;;12.27;9.57;;;;;;;;;;5013576;28;94200;-72
2022/06/05 03:10:32;;;;;;;12.38;9.13;;;;;;;;;;5012509;28;93176;-71
2022/06/05 03:13:01;;;;;;;13.52;8.05;;;;;;;;;;5014022;28;91823;-71
2022/06/05 03:15:28;;;;;;;11.82;8.98;;;;;;;;;;5016340;28;93350;-72
2022/06/05 03:17:54;;;;;;;12.90;8.95;;;;;;;;;;5012804;28;92809;-72
2022/06/05 03:20:21;;;;;;;13.02;9.25;;;;;;;;;;5012108;28;94825;-72
2022/06/05 03:22:47;;;;;;;15.32;10.00;;;;;;;;;;5013381;28;93284;-72
2022/06/05 03:25:15;;;;;;;15.60;9.60;;;;;;;;;;5012144;28;92612;-72
2022/06/05 03:27:42;;;;;;;10.88;9.80;;;;;;;;;;5013193;28;93930;-72
2022/06/05 03:30:08;;;;;;;11.40;8.90;;;;;;;;;;5013516;28;94196;-72
2022/06/05 03:32:35;;;;;;;14.35;9.55;;;;;;;;;;5011994;28;93520;-72
2022/06/05 03:35:01;;;;;;;11.00;9.90;;;;;;;;;;5015616;28;92973;-72
2022/06/05 03:37:28;;;;;;;16.27;9.32;;;;;;;;;;5013471;28;91732;-72
2022/06/05 03:39:54;;;;;;;15.82;10.93;;;;;;;;;;5012483;28;93167;-72
2022/06/05 03:42:20;;;;;;;14.40;10.13;;;;;;;;;;5012610;28;93463;-72
2022/06/05 03:44:47;;;;;;;12.45;9.35;;;;;;;;;;5010466;28;95482;-72
2022/06/05 03:47:14;;;;;;;15.32;10.70;;;;;;;;;;5012873;28;95690;-72
2022/06/05 03:49:40;;;;;;;13.68;10.25;;;;;;;;;;5011340;28;93470;-72
2022/06/05 03:52:07;;;;;;;19.83;10.35;;;;;;;;;;5011858;28;92435;-72
2022/06/05 03:54:34;;;;;;;11.57;10.40;;;;;;;;;;5012194;28;93567;-72
2022/06/05 03:57:01;;;;;;;13.85;10.43;;;;;;;;;;5019758;28;94639;-72
2022/06/05 03:59:27;;;;;;;13.57;10.77;;;;;;;;;;5011441;28;93089;-72
2022/06/05 04:01:53;;;;;;;16.48;10.60;;;;;;;;;;5012469;28;92499;-72
2022/06/05 04:04:20;;;;;;;17.35;11.63;;;;;;;;;;5012218;28;92441;-72
2022/06/05 04:06:46;;;;;;;15.65;11.02;;;;;;;;;;5011049;28;93371;-72
2022/06/05 04:09:12;;;;;;;11.77;10.07;;;;;;;;;;5010078;28;95942;-72
2022/06/05 04:11:39;;;;;;;15.35;10.93;;;;;;;;;;5012137;28;92933;-72
2022/06/05 04:14:07;;;;;;;16.73;11.40;;;;;;;;;;5011816;28;94297;-72
2022/06/05 04:16:35;;;;;;;13.20;11.40;;;;;;;;;;5011710;28;94203;-72
2022/06/05 04:19:02;;;;;;;13.90;10.20;;;;;;;;;;5014496;28;92443;-72
2022/06/05 04:21:30;;;;;;;14.50;10.30;;;;;;;;;;5011177;28;94356;-72
2022/06/05 04:23:57;;;;;;;12.35;10.25;;;;;;;;;;5012308;28;92649;-72
2022/06/05 04:26:25;;;;;;;19.33;11.20;;;;;;;;;;5004423;28;94337;-72
2022/06/05 04:28:54;;;;;;;15.25;10.80;;;;;;;;;;5011272;28;94224;-72
2022/06/05 04:31:24;;;;;;;11.68;10.57;;;;;;;;;;5012073;28;92570;-72
2022/06/05 04:33:51;;;;;;;15.82;10.75;;;;;;;;;;5008198;28;95070;-73
2022/06/05 04:36:18;;;;;;;11.25;10.13;;;;;;;;;;5010927;28;94111;-72
2022/06/05 04:38:44;;;;;;;14.75;10.93;;;;;;;;;;5011560;28;92555;-72
2022/06/05 04:41:11;;;;;;;11.70;10.45;;;;;;;;;;5014160;28;93921;-72
2022/06/05 04:43:37;;;;;;;11.35;9.43;;;;;;;;;;5010896;28;92518;-71
2022/06/05 04:46:05;;;;;;;13.45;10.73;;;;;;;;;;5012259;28;92997;-71
2022/06/05 04:48:32;;;;;;;13.00;10.25;;;;;;;;;;5013880;28;93916;-72
2022/06/05 04:50:58;;;;;;;13.73;10.73;;;;;;;;;;5015773;28;92413;-73
2022/06/05 04:53:25;;;;;;;13.10;10.85;;;;;;;;;;5014801;28;93786;-72
2022/06/05 04:55:51;;;;;;;13.10;11.68;;;;;;;;;;5013765;28;94140;-72
2022/06/05 04:58:18;;;;;;;13.63;11.43;;;;;;;;;;5013262;28;96199;-72
2022/06/05 05:00:44;;;;;;;23.88;12.18;;;;;;;;;;5014411;28;96610;-70
2022/06/05 05:03:11;;;;;;;13.98;12.15;;;;;;;;;;5017942;28;94666;-70
2022/06/05 05:05:37;;;;;;;12.80;10.90;;;;;;;;;;5014598;28;93846;-73
2022/06/05 05:08:04;;;;;;;14.93;11.90;;;;;;;;;;5010157;28;93992;-73
2022/06/05 05:10:30;;;;;;;15.73;11.85;;;;;;;;;;5013427;28;92565;-73
2022/06/05 05:12:58;;;;;;;16.15;11.63;;;;;;;;;;5014662;28;93897;-73
2022/06/05 05:15:24;;;;;;;17.75;12.52;;;;;;;;;;5015114;28;92408;-73
2022/06/05 05:17:50;;;;;;;14.80;11.50;;;;;;;;;;5014514;28;92941;-73
2022/06/05 05:20:17;;;;;;;13.10;11.57;;;;;;;;;;5015078;28;92950;-73
2022/06/05 05:22:43;;;;;;;15.45;11.32;;;;;;;;;;5011952;28;95642;-72
2022/06/05 05:25:10;;;;;;;12.98;11.60;;;;;;;;;;5016871;28;92887;-72
2022/06/05 05:27:36;;;;;;;13.02;11.73;;;;;;;;;;5013332;28;93267;-72
2022/06/05 05:30:04;;;;;;;17.95;12.55;;;;;;;;;;5014899;28;93897;-71
2022/06/05 05:32:30;;;;;;;12.95;11.25;;;;;;;;;;5008087;28;93856;-71
2022/06/05 05:34:57;;;;;;;13.25;11.77;;;;;;;;;;5001694;28;94293;-71
2022/06/05 05:37:23;;;;;;;13.82;12.35;;;;;;;;;;5010420;28;93006;-71
2022/06/05 05:42:35;;;;;;;14.18;10.48;;;;;;;;;;5014541;28;93333;-71
2022/06/05 05:45:01;;;;;;;12.27;10.98;;;;;;;;;;5016832;28;92563;-71
2022/06/05 05:47:30;;;;;;;13.00;11.20;;;;;;;;;;5012619;28;97002;-71
2022/06/05 05:50:00;;;;;;;14.30;12.15;;;;;;;;;;5014678;28;92518;-71
2022/06/05 05:52:27;;;;;;;18.00;11.52;;;;;;;;;;5013400;28;94350;-71
2022/06/05 05:54:54;;;;;;;14.23;11.77;;;;;;;;;;5014067;28;94254;-71
2022/06/05 05:57:21;;;;;;;16.23;11.68;;;;;;;;;;5014374;28;92559;-71
2022/06/05 05:59:47;;;;;;;12.77;10.90;;;;;;;;;;5011955;28;93899;-71
2022/06/05 06:02:18;;;;;;;16.25;11.55;;;;;;;;;;5014202;28;94501;-71
2022/06/05 06:04:45;;;;;;;14.77;11.75;;;;;;;;;;5014574;28;91790;-71
2022/06/05 06:07:12;;;;;;;12.85;10.93;;;;;;;;;;5015993;28;92930;-71
2022/06/05 06:09:38;;;;;;;15.63;11.55;;;;;;;;;;5013783;28;92542;-72
2022/06/05 06:12:05;;;;;;;13.43;11.27;;;;;;;;;;5012514;28;94937;-71
2022/06/05 06:14:33;;;;;;;15.80;10.88;;;;;;;;;;5013120;28;94466;-71
2022/06/05 06:16:59;;;;;;;15.57;10.93;;;;;;;;;;5013954;28;92419;-71
2022/06/05 06:19:26;;;;;;;12.13;10.27;;;;;;;;;;5013727;28;93852;-71
2022/06/05 06:21:52;;;;;;;16.08;10.40;;;;;;;;;;5012724;28;93448;-71
2022/06/05 06:24:19;;;;;;;14.70;11.05;;;;;;;;;;5006455;28;92938;-71
2022/06/05 06:26:45;;;;;;;15.20;10.95;;;;;;;;;;5013538;28;93027;-72
2022/06/05 06:29:11;;;;;;;12.52;10.45;;;;;;;;;;5016443;28;92546;-71
2022/06/05 06:31:38;;;;;;;12.20;10.77;;;;;;;;;;5013576;28;93249;-71
2022/06/05 06:34:05;;;;;;;12.38;10.15;;;;;;;;;;5012701;28;93456;-71
2022/06/05 06:36:32;;;;;;;12.52;11.23;;;;;;;;;;5011835;28;94851;-71
2022/06/05 06:39:14;;;;;;;15.73;10.80;;;;;;;;;;5013628;28;95496;-71
2022/06/05 06:41:41;;;;;;;14.63;11.70;;;;;;;;;;5012189;28;93989;-71
2022/06/05 06:44:07;;;;;;;11.18;10.10;;;;;;;;;;5013586;28;92445;-71
2022/06/05 06:46:34;;;;;;;12.38;11.13;;;;;;;;;;5013147;28;94064;-71
2022/06/05 06:49:01;;;;;;;13.38;10.73;;;;;;;;;;5012525;28;94355;-71
2022/06/05 06:51:27;;;;;;;13.27;10.27;;;;;;;;;;5016228;28;92499;-71
2022/06/05 06:53:53;;;;;;;13.63;10.98;;;;;;;;;;5013857;28;92631;-71
2022/06/05 06:56:24;;;;;;;12.13;10.60;;;;;;;;;;5012574;28;92495;-71
2022/06/05 06:58:52;;;;;;;;;;;;;;;;;;5011197;28;93065;-71
2022/06/05 07:01:18;;;;;;;13.45;9.80;;;;;;;;;;5000704;28;126979;-71
2022/06/05 07:03:45;;;;;;;13.88;10.10;;;;;;;;;;5005228;28;92535;-71
2022/06/05 07:06:12;;;;;;;14.73;9.82;;;;;;;;;;5004192;28;93220;-71
2022/06/05 07:08:39;;;;;;;15.38;9.55;;;;;;;;;;5001728;28;94328;-71
2022/06/05 07:11:06;;;;;;;15.68;10.75;;;;;;;;;;4997443;28;92930;-72
2022/06/05 07:13:33;;;;;;;10.75;9.32;;;;;;;;;;5011135;28;93058;-72
2022/06/05 07:16:00;;;;;;;12.27;10.40;;;;;;;;;;5005105;28;93900;-71
2022/06/05 07:18:26;;;;;;;12.00;9.57;;;;;;;;;;5019568;28;93126;-72
2022/06/05 07:20:53;;;;;;;10.73;9.57;;;;;;;;;;5008178;28;92518;-71
2022/06/05 07:23:19;;;;;;;12.75;9.57;;;;;;;;;;5013199;28;92599;-71
2022/06/05 07:25:46;;;;;;;11.30;10.23;;;;;;;;;;5003466;28;94883;-71
2022/06/05 07:28:13;;;;;;;13.15;9.75;;;;;;;;;;5008337;28;94115;-72
2022/06/05 07:30:39;;;;;;;13.45;9.55;;;;;;;;;;4998648;28;93192;-72
2022/06/05 07:33:06;;;;;;;10.63;8.88;;;;;;;;;;5010467;28;93674;-71
2022/06/05 07:35:32;;;;;;;11.43;9.43;;;;;;;;;;4995906;28;92465;-72
2022/06/05 07:37:59;;;;;;;9.55;8.65;;;;;;;;;;4993561;28;95320;-70
2022/06/05 07:40:40;;;;;;;12.98;9.35;;;;;;;;;;5001958;28;93301;-71
2022/06/05 07:43:09;;;;;;;11.30;9.30;;;;;;;;;;5013733;28;91744;-71
2022/06/05 07:45:37;;;;;;;10.50;9.35;;;;;;;;;;5005598;28;92609;-72
2022/06/05 07:48:04;;;;;;;11.32;9.85;;;;;;;;;;5013237;28;93266;-71
2022/06/05 07:50:30;;;;;;;9.73;7.97;;;;;;;;;;5011432;28;94861;-71
2022/06/05 07:55:42;;;;;;;12.80;9.50;;;;;;;;;;5008118;28;93496;-71
2022/06/05 07:58:08;;;;;;;12.02;8.95;;;;;;;;;;5012984;28;93194;-71
2022/06/05 08:00:35;;;;;;;11.57;8.98;;;;;;;;;;5005285;28;94302;-71
2022/06/05 08:03:01;;;;;;;10.80;7.97;;;;;;;;;;5005524;28;93924;-70
2022/06/05 08:05:27;;;;;;;8.93;8.07;;;;;;;;;;5003979;28;94530;-70
2022/06/05 08:07:54;;;;;;;10.13;8.55;;;;;;;;;;5011341;28;95270;-70
2022/06/05 08:10:20;;;;;;;12.63;8.57;;;;;;;;;;5001688;28;92527;-71
2022/06/05 08:12:49;;;;;;;9.85;8.48;;;;;;;;;;5011824;28;95054;-71
2022/06/05 08:15:16;;;;;;;9.55;7.40;;;;;;;;;;5011194;28;95690;-71
2022/06/05 08:17:43;;;;;;;7.28;6.65;;;;;;;;;;5008262;28;92506;-71
2022/06/05 08:20:10;;;;;;;9.02;7.55;;;;;;;;;;5008932;28;94293;-71
2022/06/05 08:22:36;;;;;;;7.95;7.20;;;;;;;;;;5013708;28;92482;-71
2022/06/05 08:25:03;;;;;;;9.63;7.50;;;;;;;;;;5016942;28;93914;-71
2022/06/05 08:27:33;;;;;;;8.45;7.45;;;;;;;;;;5003271;28;93140;-70
2022/06/05 08:30:02;;;;;;;8.23;6.32;;;;;;;;;;5015190;28;92567;-71
2022/06/05 08:32:38;;;;;;;7.13;6.43;;;;;;;;;;5008436;28;92952;-71
2022/06/05 08:35:07;;;;;;;7.50;6.72;;;;;;;;;;5011908;28;94371;-71
2022/06/05 08:43:05;;;;;;;6.97;5.50;;;;;;;;;;5008785;28;92570;-69
2022/06/05 08:45:41;;;;;;;10.30;7.38;;;;;;;;;;5015747;28;93973;-69
2022/06/05 08:48:13;;;;;;;7.43;6.57;;;;;;;;;;5013755;28;94538;-69
2022/06/05 08:50:49;;;;;;;5.95;5.45;;;;;;;;;;5016310;28;92510;-72
2022/06/05 08:53:18;;;;;;;6.60;5.88;;;;;;;;;;5015569;28;95000;-70
2022/06/05 08:55:47;;;;;;;13.02;5.90;;;;;;;;;;5015055;28;93083;-70
2022/06/05 08:58:23;;;;;;;10.82;5.97;;;;;;;;;;5016063;28;91697;-70
2022/06/05 09:00:51;;;;;;;6.22;5.60;;;;;;;;;;5007917;28;93125;-70
2022/06/05 09:03:24;;;;;;;9.57;5.50;;;;;;;;;;5009814;28;94268;-70
2022/06/05 09:05:55;;;;;;;5.63;5.18;;;;;;;;;;5013878;28;94853;-70
2022/06/05 09:08:31;;;;;;;5.40;5.00;;;;;;;;;;5005761;28;93994;-71
2022/06/05 09:11:03;;;;;;;7.35;6.65;;;;;;;;;;5014847;28;92534;-71
2022/06/05 09:13:38;;;;;;;9.55;5.57;;;;;;;;;;5014211;28;93306;-71
2022/06/05 09:16:11;;;;;;;7.85;5.65;;;;;;;;;;5013191;28;93507;-70
2022/06/05 09:18:43;;;;;;;7.68;5.78;;;;;;;;;;5012430;28;93135;-70
2022/06/05 09:21:16;;;;;;;7.70;6.43;;;;;;;;;;5012421;28;94578;-70
2022/06/05 09:24:04;;;;;;;6.18;5.60;;;;;;;;;;5015407;28;92364;-70
2022/06/05 09:26:48;;;;;;;7.70;4.97;;;;;;;;;;5017751;28;92676;-70
2022/06/05 09:29:21;;;;;;;7.32;5.50;;;;;;;;;;5031499;27;94086;-70
2022/06/05 09:31:53;;;;;;;6.40;5.80;;;;;;;;;;5012990;28;95297;-70
2022/06/05 09:34:23;;;;;;;7.25;5.53;;;;;;;;;;5014648;28;95669;-70
2022/06/05 09:37:09;;;;;;;6.35;5.85;;;;;;;;;;5006583;28;94127;-71
2022/06/05 09:39:39;;;;;;;6.60;5.10;;;;;;;;;;5014799;28;92529;-70
2022/06/05 09:42:29;;;;;;;6.78;4.90;;;;;;;;;;5015554;28;94037;-70
2022/06/05 09:45:01;;;;;;;7.63;6.00;;;;;;;;;;5013799;28;92921;-70
2022/06/05 09:47:44;;;;;;;7.22;5.75;;;;;;;;;;5018241;28;92483;-70
2022/06/05 09:50:29;;;;;;;7.18;6.00;;;;;;;;;;5015548;28;93387;-70
2022/06/05 09:52:56;;;;;;;6.45;5.25;;;;;;;;;;5008303;28;92511;-70
2022/06/05 09:55:28;;;;;;;15.32;7.20;;;;;;;;;;5014864;28;93999;-70
2022/06/05 09:58:24;;;;;;;11.82;6.15;;;;;;;;;;5006058;28;96589;-71
2022/06/05 10:00:53;;;;;;;8.65;6.32;;;;;;;;;;4949585;28;94242;-70
2022/06/05 10:03:25;;;;;;;7.43;5.63;;;;;;;;;;5009382;28;95565;-70
2022/06/05 10:06:11;;;;;;;7.40;5.50;;;;;;;;;;5009673;28;93447;-70
2022/06/05 10:08:41;;;;;;;9.10;6.15;;;;;;;;;;5012564;28;92471;-73
2022/06/05 10:11:20;;;;;;;7.38;6.20;;;;;;;;;;5017635;28;93145;-73
2022/06/05 10:13:51;;;;;;;6.35;5.80;;;;;;;;;;5005579;28;92579;-70
2022/06/05 10:16:27;;;;;;;7.40;6.50;;;;;;;;;;5015279;28;93028;-70
2022/06/05 10:18:58;;;;;;;6.38;5.88;;;;;;;;;;5011151;28;94183;-69
2022/06/05 10:21:32;;;;;;;6.53;6.03;;;;;;;;;;5014419;28;92498;-70
2022/06/05 10:24:07;;;;;;;9.02;6.07;;;;;;;;;;5012962;28;94956;-70
2022/06/05 10:26:37;;;;;;;6.97;6.25;;;;;;;;;;5012940;28;93923;-70
2022/06/05 10:29:17;;;;;;;7.25;6.55;;;;;;;;;;5014751;28;92499;-70
2022/06/05 10:31:54;;;;;;;7.03;6.38;;;;;;;;;;5013598;28;92967;-69
2022/06/05 10:34:24;;;;;;;7.85;5.80;;;;;;;;;;5010263;28;93195;-70
2022/06/05 10:37:01;;;;;;;6.10;5.60;;;;;;;;;;5013451;28;92882;-69
2022/06/05 10:39:46;;;;;;;7.80;6.13;;;;;;;;;;5013837;28;93587;-70
2022/06/05 10:42:52;;;;;;;6.80;5.80;;;;;;;;;;5008813;28;91825;-70
2022/06/05 10:45:39;;;;;;;6.95;5.82;;;;;;;;;;4982099;28;93275;-70
2022/06/05 10:48:38;;;;;;;9.95;6.32;;;;;;;;;;5010992;28;93033;-70
2022/06/05 10:51:13;;;;;;;5.65;5.15;;;;;;;;;;5002359;28;95058;-70
2022/06/05 10:53:57;;;;;;;8.15;5.43;;;;;;;;;;5013422;28;95664;-70
2022/06/05 10:56:33;;;;;;;8.10;6.55;;;;;;;;;;5013162;28;93285;-70
2022/06/05 10:59:00;;;;;;;10.38;5.50;;;;;;;;;;5017024;28;92475;-70
2022/06/05 11:01:42;;;;;;;5.47;4.93;;;;;;;;;;5012442;28;92480;-70
2022/06/05 11:04:14;;;;;;;6.00;5.53;;;;;;;;;;5010126;28;92765;-71
2022/06/05 11:06:47;;;;;;;6.97;5.32;;;;;;;;;;5001463;28;93899;-70
2022/06/05 11:09:17;;;;;;;6.70;5.60;;;;;;;;;;5004869;28;93499;-70
2022/06/05 11:14:40;;;;;;;6.80;5.90;;;;;;;;;;5006908;28;93363;-71
2022/06/05 11:17:25;;;;;;;5.97;5.57;;;;;;;;;;4998734;28;95694;-70
2022/06/05 11:19:58;;;;;;;6.30;5.88;;;;;;;;;;4997702;28;92562;-69
2022/06/05 11:22:26;;;;;;;6.80;6.30;;;;;;;;;;5008307;28;93793;-70
2022/06/05 11:24:55;;;;;;;9.63;6.10;;;;;;;;;;5009186;28;92457;-70
2022/06/05 11:27:25;;;;;;;9.77;5.50;;;;;;;;;;5013671;28;93881;-70
2022/06/05 11:29:52;;;;;;;10.00;5.85;;;;;;;;;;5012100;28;92577;-70
2022/06/05 11:32:21;;;;;;;9.57;5.55;;;;;;;;;;5013186;28;92581;-70
2022/06/05 11:34:51;;;;;;;10.38;5.47;;;;;;;;;;5003932;28;91842;-70
2022/06/05 11:37:34;;;;;;;6.75;5.38;;;;;;;;;;4996627;28;94098;-70
2022/06/05 11:40:20;;;;;;;6.70;5.60;;;;;;;;;;5000353;28;92498;-71
2022/06/05 11:42:50;;;;;;;9.52;5.45;;;;;;;;;;5000359;28;94838;-70
2022/06/05 11:45:22;;;;;;;10.18;5.90;;;;;;;;;;5003088;28;94305;-70
2022/06/05 11:47:51;;;;;;;7.50;5.70;;;;;;;;;;5001831;28;93785;-70
2022/06/05 11:50:36;;;;;;;5.82;5.45;;;;;;;;;;4996212;28;93263;-70
2022/06/05 11:53:19;;;;;;;5.07;4.78;;;;;;;;;;5001903;28;92602;-71
2022/06/05 11:55:59;;;;;;;5.20;4.80;;;;;;;;;;5004053;28;94238;-70
2022/06/05 11:58:31;;;;;;;7.78;5.68;;;;;;;;;;5013952;28;94212;-71
2022/06/05 12:00:57;;;;;;;;;;;;;;;;;;5014084;28;92391;-71
2022/06/05 12:03:31;;;;;;;6.18;5.57;;;;;;;;;;5013167;28;123217;-71
2022/06/05 12:06:00;;;;;;;8.13;5.03;;;;;;;;;;5013551;28;93352;-70
2022/06/05 12:08:31;;;;;;;6.53;6.03;;;;;;;;;;5011263;28;94841;-70
2022/06/05 12:11:09;;;;;;;6.53;6.03;;;;;;;;;;5013041;28;94280;-70
2022/06/05 12:13:54;;;;;;;6.13;5.75;;;;;;;;;;5011727;28;92426;-70
2022/06/05 12:16:27;;;;;;;7.88;6.68;;;;;;;;;;5012542;28;94140;-70
2022/06/05 12:19:15;;;;;;;8.20;6.50;;;;;;;;;;5011852;28;94341;-70
2022/06/05 12:21:51;;;;;;;6.40;5.75;;;;;;;;;;5006683;28;92441;-71
2022/06/05 12:24:23;;;;;;;7.38;5.53;;;;;;;;;;5012645;28;93285;-71
2022/06/05 12:27:05;;;;;;;6.93;6.22;;;;;;;;;;5011072;28;92676;-71
2022/06/05 12:29:34;;;;;;;6.00;5.60;;;;;;;;;;5007138;28;92485;-71
2022/06/05 12:32:04;;;;;;;7.18;6.47;;;;;;;;;;5012683;28;93671;-71
2022/06/05 12:34:38;;;;;;;7.45;5.95;;;;;;;;;;5009974;28;94814;-71
2022/06/05 12:37:18;;;;;;;6.95;5.97;;;;;;;;;;5012682;28;95236;-71
2022/06/05 12:39:52;;;;;;;6.60;6.00;;;;;;;;;;5011535;28;93314;-71
2022/06/05 12:42:18;;;;;;;6.82;6.03;;;;;;;;;;5012686;28;92429;-70
2022/06/05 12:44:52;;;;;;;6.57;6.18;;;;;;;;;;5012041;28;93044;-71
2022/06/05 12:47:37;;;;;;;6.85;6.30;;;;;;;;;;5010252;28;94026;-70
2022/06/05 12:50:12;;;;;;;8.45;6.55;;;;;;;;;;5012814;28;92577;-71
2022/06/05 12:52:58;;;;;;;10.52;6.65;;;;;;;;;;5008048;28;93009;-71
2022/06/05 12:55:28;;;;;;;6.90;6.20;;;;;;;;;;5011421;28;92539;-71
2022/06/05 12:58:10;;;;;;;7.22;6.22;;;;;;;;;;5012717;28;94477;-71
2022/06/05 13:00:41;;;;;;;6.00;5.50;;;;;;;;;;5009919;28;96680;-71
2022/06/05 13:03:17;;;;;;;7.82;7.22;;;;;;;;;;5012587;28;92642;-71
2022/06/05 13:05:55;;;;;;;7.05;6.50;;;;;;;;;;5004657;28;94266;-71
2022/06/05 13:08:43;;;;;;;7.88;7.10;;;;;;;;;;5013127;28;94620;-71
2022/06/05 13:11:31;;;;;;;7.95;7.07;;;;;;;;;;5015785;28;92586;-71
2022/06/05 13:14:21;;;;;;;7.43;6.82;;;;;;;;;;5009381;28;93162;-71
2022/06/05 13:17:01;;;;;;;7.40;6.80;;;;;;;;;;5012891;28;94552;-71
2022/06/05 13:19:40;;;;;;;14.65;8.60;;;;;;;;;;5008452;28;93757;-71
2022/06/05 13:22:33;;;;;;;9.98;9.25;;;;;;;;;;5014628;28;94234;-70
2022/06/05 13:25:18;;;;;;;13.30;8.93;;;;;;;;;;4984927;28;93557;-71
2022/06/05 13:27:59;;;;;;;9.45;8.68;;;;;;;;;;5013330;28;95180;-72
2022/06/05 13:30:27;;;;;;;10.00;9.10;;;;;;;;;;5012794;28;93667;-71
2022/06/05 13:33:19;;;;;;;12.57;11.57;;;;;;;;;;5014184;28;92440;-71
2022/06/05 13:35:46;;;;;;;20.15;10.45;;;;;;;;;;5013965;28;93418;-71
2022/06/05 13:38:39;;;;;;;14.57;11.10;;;;;;;;;;5013544;28;93921;-71
2022/06/05 13:41:15;;;;;;;9.57;8.73;;;;;;;;;;5011161;28;92621;-71
2022/06/05 13:43:45;;;;;;;10.52;9.65;;;;;;;;;;5013792;28;94124;-71
2022/06/05 13:46:15;;;;;;;11.63;10.65;;;;;;;;;;5015630;28;91876;-71
2022/06/05 13:48:58;;;;;;;10.88;10.00;;;;;;;;;;5014474;28;92573;-70
2022/06/05 13:51:30;;;;;;;16.88;10.85;;;;;;;;;;5012952;28;93168;-71
2022/06/05 13:54:02;;;;;;;12.07;11.10;;;;;;;;;;5003352;28;94940;-71
2022/06/05 13:56:39;;;;;;;11.77;10.88;;;;;;;;;;5013693;28;95433;-71
2022/06/05 13:59:21;;;;;;;11.88;10.93;;;;;;;;;;5013530;28;94059;-70
2022/06/05 14:02:17;;;;;;;12.05;11.02;;;;;;;;;;5013541;28;92564;-70
2022/06/05 14:05:02;;;;;;;11.30;10.35;;;;;;;;;;4969366;28;92965;-70
2022/06/05 14:07:48;;;;;;;11.73;10.77;;;;;;;;;;5009852;28;93731;-70
2022/06/05 14:10:19;;;;;;;15.55;11.65;;;;;;;;;;5013953;28;93035;-71
2022/06/05 14:12:52;;;;;;;13.25;11.32;;;;;;;;;;5013001;28;92658;-70
2022/06/05 14:15:24;;;;;;;13.27;12.07;;;;;;;;;;5013679;28;92451;-70
2022/06/05 14:17:50;;;;;;;13.73;12.60;;;;;;;;;;5003938;28;93255;-70
2022/06/05 14:20:20;;;;;;;13.70;12.70;;;;;;;;;;5010425;28;97487;-70
2022/06/05 14:22:51;;;;;;;18.40;14.55;;;;;;;;;;5013341;28;92513;-70
2022/06/05 14:25:27;;;;;;;16.45;14.75;;;;;;;;;;5016187;28;93333;-70
2022/06/05 14:27:56;;;;;;;18.70;17.02;;;;;;;;;;5013614;28;93513;-70
2022/06/05 14:30:24;;;;;;;19.50;17.33;;;;;;;;;;5013816;28;94001;-70
2022/06/05 14:32:51;;;;;;;19.75;17.67;;;;;;;;;;5012263;28;94437;-70
2022/06/05 14:35:20;;;;;;;19.70;17.83;;;;;;;;;;5013358;28;92657;-70
2022/06/05 14:38:22;;;;;;;19.60;17.02;;;;;;;;;;5013551;28;94242;-70
2022/06/05 14:41:08;;;;;;;20.13;17.27;;;;;;;;;;4961745;28;94070;-70
2022/06/05 14:43:38;;;;;;;18.27;16.70;;;;;;;;;;5006397;28;92421;-70
2022/06/05 14:46:17;;;;;;;18.35;16.23;;;;;;;;;;5011873;28;94912;-70
2022/06/05 14:48:47;;;;;;;17.45;15.80;;;;;;;;;;5016092;28;94180;-70
2022/06/05 14:51:18;;;;;;;16.60;15.10;;;;;;;;;;5005656;28;93182;-70
2022/06/05 14:53:56;;;;;;;16.80;15.50;;;;;;;;;;5012139;28;93289;-70
2022/06/05 14:59:35;;;;;;;18.40;16.92;;;;;;;;;;5013349;28;92961;-70
2022/06/05 15:02:09;;;;;;;18.38;16.92;;;;;;;;;;5010557;28;93446;-70
2022/06/05 15:04:41;;;;;;;19.63;17.67;;;;;;;;;;5013409;28;91720;-70
2022/06/05 15:07:29;;;;;;;17.50;15.70;;;;;;;;;;5012970;28;93282;-70
2022/06/05 15:09:58;;;;;;;17.20;15.77;;;;;;;;;;5012804;28;93562;-71
2022/06/05 15:12:42;;;;;;;18.98;16.77;;;;;;;;;;5014342;28;95399;-71
2022/06/05 15:15:11;;;;;;;19.52;17.73;;;;;;;;;;5011875;28;94505;-70
2022/06/05 15:17:42;;;;;;;21.80;19.52;;;;;;;;;;5012716;28;92599;-70